sensor_id;sensor_type;location;lat;lon;timestamp;pressure;altitude;pressure_sealevel;temperature;humidity
2188;BME280;1100;52.014;8.540;2022-12-11T00:01:54;99666.56;;;-2.14;92.61
2188;BME280;1100;52.014;8.540;2022-12-11T00:04:20;99665.84;;;-2.10;92.63
2188;BME280;1100;52.014;8.540;2022-12-11T00:06:45;99669.78;;;-2.08;92.62
2188;BME280;1100;52.014;8.540;2022-12-11T00:09:14;99666.69;;;-2.06;92.71
2188;BME280;1100;52.014;8.540;2022-12-11T00:11:40;99665.53;;;-2.05;92.65
2188;BME280;1100;52.014;8.540;2022-12-11T00:14:05;99661.25;;;-2.06;92.63
2188;BME280;1100;52.014;8.540;2022-12-11T00:16:30;99657.78;;;-2.03;92.66
2188;BME280;1100;52.014;8.540;2022-12-11T00:18:56;99658.22;;;-2.01;92.58
2188;BME280;1100;52.014;8.540;2022-12-11T00:21:21;99665.66;;;-1.98;92.76
2188;BME280;1100;52.014;8.540;2022-12-11T00:23:46;99659.06;;;-1.97;92.71
2188;BME280;1100;52.014;8.540;2022-12-11T00:26:13;99655.91;;;-1.99;92.67
2188;BME280;1100;52.014;8.540;2022-12-11T00:28:39;99659.44;;;-1.98;92.56
2188;BME280;1100;52.014;8.540;2022-12-11T00:31:07;99657.50;;;-1.98;92.72
2188;BME280;1100;52.014;8.540;2022-12-11T00:33:33;99653.19;;;-1.99;92.46
2188;BME280;1100;52.014;8.540;2022-12-11T00:35:58;99650.88;;;-1.97;92.64
2188;BME280;1100;52.014;8.540;2022-12-11T00:38:23;99651.31;;;-1.95;92.52
2188;BME280;1100;52.014;8.540;2022-12-11T00:40:49;99653.25;;;-1.95;92.42
2188;BME280;1100;52.014;8.540;2022-12-11T00:43:15;99654.81;;;-1.94;92.68
2188;BME280;1100;52.014;8.540;2022-12-11T00:45:42;99659.91;;;-1.93;92.56
2188;BME280;1100;52.014;8.540;2022-12-11T00:48:09;99648.88;;;-2.00;91.87
2188;BME280;1100;52.014;8.540;2022-12-11T00:50:35;99649.69;;;-1.99;92.30
2188;BME280;1100;52.014;8.540;2022-12-11T00:53:02;99657.06;;;-2.00;92.32
2188;BME280;1100;52.014;8.540;2022-12-11T00:55:28;99655.13;;;-1.99;92.55
2188;BME280;1100;52.014;8.540;2022-12-11T00:57:55;99660.63;;;-1.96;92.71
2188;BME280;1100;52.014;8.540;2022-12-11T01:00:21;99668.88;;;-1.92;92.57
2188;BME280;1100;52.014;8.540;2022-12-11T01:02:47;99668.50;;;-1.91;92.34
2188;BME280;1100;52.014;8.540;2022-12-11T01:05:13;99668.50;;;-1.91;92.43
2188;BME280;1100;52.014;8.540;2022-12-11T01:07:39;99671.59;;;-1.92;92.40
2188;BME280;1100;52.014;8.540;2022-12-11T01:10:04;99671.16;;;-1.94;92.16
2188;BME280;1100;52.014;8.540;2022-12-11T01:12:52;99665.22;;;-2.00;92.37
2188;BME280;1100;52.014;8.540;2022-12-11T01:15:19;99674.97;;;-1.99;92.43
2188;BME280;1100;52.014;8.540;2022-12-11T01:17:45;99680.78;;;-2.01;92.41
2188;BME280;1100;52.014;8.540;2022-12-11T01:20:11;99679.59;;;-2.03;92.13
2188;BME280;1100;52.014;8.540;2022-12-11T01:22:39;99673.78;;;-2.02;92.23
2188;BME280;1100;52.014;8.540;2022-12-11T01:25:05;99669.84;;;-2.04;92.15
2188;BME280;1100;52.014;8.540;2022-12-11T01:27:31;99667.84;;;-2.07;92.44
2188;BME280;1100;52.014;8.540;2022-12-11T01:29:56;99667.41;;;-2.09;92.51
2188;BME280;1100;52.014;8.540;2022-12-11T01:32:21;99663.50;;;-2.12;92.44
2188;BME280;1100;52.014;8.540;2022-12-11T01:34:47;99670.03;;;-2.17;92.34
2188;BME280;1100;52.014;8.540;2022-12-11T01:37:12;99665.72;;;-2.18;92.46
2188;BME280;1100;52.014;8.540;2022-12-11T01:39:38;99668.88;;;-2.16;92.74
2188;BME280;1100;52.014;8.540;2022-12-11T01:42:16;99667.34;;;-2.13;92.52
2188;BME280;1100;52.014;8.540;2022-12-11T01:47:07;99668.97;;;-2.08;92.60
2188;BME280;1100;52.014;8.540;2022-12-11T01:49:32;99672.94;;;-2.06;92.58
2188;BME280;1100;52.014;8.540;2022-12-11T01:52:02;99680.31;;;-2.06;92.56
2188;BME280;1100;52.014;8.540;2022-12-11T01:54:29;99670.13;;;-2.09;92.61
2188;BME280;1100;52.014;8.540;2022-12-11T01:56:58;99667.06;;;-2.08;92.74
2188;BME280;1100;52.014;8.540;2022-12-11T01:59:28;99672.13;;;-2.06;92.58
2188;BME280;1100;52.014;8.540;2022-12-11T02:02:11;99668.63;;;-2.07;92.48
2188;BME280;1100;52.014;8.540;2022-12-11T02:04:39;99663.16;;;-2.07;92.45
2188;BME280;1100;52.014;8.540;2022-12-11T02:07:06;99651.50;;;-2.07;92.50
2188;BME280;1100;52.014;8.540;2022-12-11T02:09:33;99665.53;;;-2.05;92.62
2188;BME280;1100;52.014;8.540;2022-12-11T02:25:53;99648.34;;;-2.09;92.17
2188;BME280;1100;52.014;8.540;2022-12-11T02:28:33;99647.97;;;-2.08;92.57
2188;BME280;1100;52.014;8.540;2022-12-11T02:31:13;99643.34;;;-2.07;92.53
2188;BME280;1100;52.014;8.540;2022-12-11T02:33:51;99637.88;;;-2.07;92.40
2188;BME280;1100;52.014;8.540;2022-12-11T02:36:21;99630.44;;;-2.10;92.33
2188;BME280;1100;52.014;8.540;2022-12-11T02:38:50;99633.16;;;-2.10;92.56
2188;BME280;1100;52.014;8.540;2022-12-11T02:41:17;99632.44;;;-2.07;92.59
2188;BME280;1100;52.014;8.540;2022-12-11T02:43:44;99640.53;;;-2.11;91.92
2188;BME280;1100;52.014;8.540;2022-12-11T02:46:12;99637.75;;;-2.15;92.30
2188;BME280;1100;52.014;8.540;2022-12-11T02:48:39;99636.25;;;-2.12;92.46
2188;BME280;1100;52.014;8.540;2022-12-11T02:51:06;99632.31;;;-2.15;92.52
2188;BME280;1100;52.014;8.540;2022-12-11T02:53:37;99631.53;;;-2.15;92.41
2188;BME280;1100;52.014;8.540;2022-12-11T02:56:13;99634.63;;;-2.17;92.37
2188;BME280;1100;52.014;8.540;2022-12-11T02:58:54;99632.25;;;-2.18;92.34
2188;BME280;1100;52.014;8.540;2022-12-11T03:01:24;99626.81;;;-2.18;92.33
2188;BME280;1100;52.014;8.540;2022-12-11T03:03:50;99625.94;;;-2.22;92.14
2188;BME280;1100;52.014;8.540;2022-12-11T03:06:19;99633.00;;;-2.21;92.44
2188;BME280;1100;52.014;8.540;2022-12-11T03:08:46;99631.03;;;-2.21;92.59
2188;BME280;1100;52.014;8.540;2022-12-11T03:11:11;99629.47;;;-2.22;92.51
2188;BME280;1100;52.014;8.540;2022-12-11T03:13:38;99630.66;;;-2.19;92.69
2188;BME280;1100;52.014;8.540;2022-12-11T03:16:16;99627.59;;;-2.18;92.52
2188;BME280;1100;52.014;8.540;2022-12-11T03:21:52;99628.00;;;-2.16;92.63
2188;BME280;1100;52.014;8.540;2022-12-11T03:24:21;99636.63;;;-2.14;93.02
2188;BME280;1100;52.014;8.540;2022-12-11T03:27:04;99636.63;;;-2.14;92.29
2188;BME280;1100;52.014;8.540;2022-12-11T03:29:37;99636.25;;;-2.12;92.38
2188;BME280;1100;52.014;8.540;2022-12-11T03:32:18;99640.19;;;-2.09;92.66
2188;BME280;1100;52.014;8.540;2022-12-11T03:34:58;99644.81;;;-2.10;92.65
2188;BME280;1100;52.014;8.540;2022-12-11T03:37:30;99641.69;;;-2.12;92.53
2188;BME280;1100;52.014;8.540;2022-12-11T03:39:59;99650.22;;;-2.14;92.27
2188;BME280;1100;52.014;8.540;2022-12-11T03:42:27;99639.34;;;-2.14;92.62
2188;BME280;1100;52.014;8.540;2022-12-11T03:44:53;99639.38;;;-2.10;92.58
2188;BME280;1100;52.014;8.540;2022-12-11T03:47:23;99637.44;;;-2.09;92.57
2188;BME280;1100;52.014;8.540;2022-12-11T03:49:51;99638.63;;;-2.10;92.18
2188;BME280;1100;52.014;8.540;2022-12-11T03:52:18;99640.19;;;-2.09;92.54
2188;BME280;1100;52.014;8.540;2022-12-11T03:54:45;99637.44;;;-2.09;92.64
2188;BME280;1100;52.014;8.540;2022-12-11T03:57:16;99637.81;;;-2.11;92.13
2188;BME280;1100;52.014;8.540;2022-12-11T03:59:42;99645.50;;;-2.17;92.13
2188;BME280;1100;52.014;8.540;2022-12-11T04:02:08;99631.91;;;-2.17;92.31
2188;BME280;1100;52.014;8.540;2022-12-11T04:04:35;99640.84;;;-2.16;92.12
2188;BME280;1100;52.014;8.540;2022-12-11T04:07:01;99634.97;;;-2.18;92.37
2188;BME280;1100;52.014;8.540;2022-12-11T04:09:26;99634.56;;;-2.20;92.07
2188;BME280;1100;52.014;8.540;2022-12-11T04:11:51;99641.09;;;-2.25;92.27
2188;BME280;1100;52.014;8.540;2022-12-11T04:14:17;99650.81;;;-2.24;92.38
2188;BME280;1100;52.014;8.540;2022-12-11T04:17:00;99643.88;;;-2.21;92.53
2188;BME280;1100;52.014;8.540;2022-12-11T04:19:26;99643.91;;;-2.18;92.63
2188;BME280;1100;52.014;8.540;2022-12-11T04:22:11;99648.34;;;-2.09;92.57
2188;BME280;1100;52.014;8.540;2022-12-11T04:24:55;99640.97;;;-2.09;92.46
2188;BME280;1100;52.014;8.540;2022-12-11T04:27:21;99646.78;;;-2.10;92.74
2188;BME280;1100;52.014;8.540;2022-12-11T04:30:09;99643.25;;;-2.11;92.42
2188;BME280;1100;52.014;8.540;2022-12-11T04:32:35;99637.09;;;-2.08;92.73
2188;BME280;1100;52.014;8.540;2022-12-11T04:35:00;99644.97;;;-2.03;93.00
2188;BME280;1100;52.014;8.540;2022-12-11T04:37:26;99644.59;;;-2.01;92.82
2188;BME280;1100;52.014;8.540;2022-12-11T04:39:52;99645.72;;;-2.02;92.50
2188;BME280;1100;52.014;8.540;2022-12-11T04:42:17;99638.78;;;-1.99;92.52
2188;BME280;1100;52.014;8.540;2022-12-11T04:44:42;99643.06;;;-1.98;92.57
2188;BME280;1100;52.014;8.540;2022-12-11T04:47:08;99636.84;;;-1.99;92.61
2188;BME280;1100;52.014;8.540;2022-12-11T04:49:33;99629.47;;;-1.98;92.62
2188;BME280;1100;52.014;8.540;2022-12-11T04:51:58;99631.81;;;-1.97;92.62
2188;BME280;1100;52.014;8.540;2022-12-11T04:54:24;99632.63;;;-1.96;92.81
2188;BME280;1100;52.014;8.540;2022-12-11T04:56:49;99631.38;;;-1.99;92.74
2188;BME280;1100;52.014;8.540;2022-12-11T04:59:14;99627.91;;;-1.99;92.38
2188;BME280;1100;52.014;8.540;2022-12-11T05:01:40;99627.81;;;-2.03;92.21
2188;BME280;1100;52.014;8.540;2022-12-11T05:04:05;99636.44;;;-2.01;92.50
2188;BME280;1100;52.014;8.540;2022-12-11T05:06:31;99625.53;;;-2.01;92.58
2188;BME280;1100;52.014;8.540;2022-12-11T05:08:56;99634.84;;;-2.02;92.62
2188;BME280;1100;52.014;8.540;2022-12-11T05:11:22;99629.38;;;-2.02;92.55
2188;BME280;1100;52.014;8.540;2022-12-11T05:13:47;99628.66;;;-1.99;92.66
2188;BME280;1100;52.014;8.540;2022-12-11T05:16:14;99634.53;;;-1.97;92.86
2188;BME280;1100;52.014;8.540;2022-12-11T05:18:39;99621.66;;;-2.00;92.25
2188;BME280;1100;52.014;8.540;2022-12-11T05:21:10;99625.47;;;-2.05;92.36
2188;BME280;1100;52.014;8.540;2022-12-11T05:23:38;99620.00;;;-2.05;92.58
2188;BME280;1100;52.014;8.540;2022-12-11T05:26:07;99620.38;;;-2.06;92.65
2188;BME280;1100;52.014;8.540;2022-12-11T05:28:35;99618.50;;;-2.02;92.57
2188;BME280;1100;52.014;8.540;2022-12-11T05:31:04;99617.00;;;-1.99;92.66
2188;BME280;1100;52.014;8.540;2022-12-11T05:33:30;99611.59;;;-1.96;92.87
2188;BME280;1100;52.014;8.540;2022-12-11T05:35:56;99618.66;;;-1.91;92.81
2188;BME280;1100;52.014;8.540;2022-12-11T05:38:22;99615.56;;;-1.90;92.66
2188;BME280;1100;52.014;8.540;2022-12-11T05:41:06;99621.03;;;-1.90;92.71
2188;BME280;1100;52.014;8.540;2022-12-11T05:43:34;99619.47;;;-1.91;92.64
2188;BME280;1100;52.014;8.540;2022-12-11T05:46:15;99614.00;;;-1.91;92.39
2188;BME280;1100;52.014;8.540;2022-12-11T05:48:42;99619.88;;;-1.89;92.87
2188;BME280;1100;52.014;8.540;2022-12-11T05:51:08;99627.28;;;-1.89;92.73
2188;BME280;1100;52.014;8.540;2022-12-11T05:53:35;99624.19;;;-1.88;92.85
2188;BME280;1100;52.014;8.540;2022-12-11T05:56:06;99619.16;;;-1.85;92.88
2188;BME280;1100;52.014;8.540;2022-12-11T05:58:32;99629.25;;;-1.86;92.77
2188;BME280;1100;52.014;8.540;2022-12-11T06:00:58;99632.78;;;-1.85;92.94
2188;BME280;1100;52.014;8.540;2022-12-11T06:03:23;99623.75;;;-1.90;92.86
2188;BME280;1100;52.014;8.540;2022-12-11T06:05:49;99624.13;;;-1.91;92.65
2188;BME280;1100;52.014;8.540;2022-12-11T06:08:15;99622.19;;;-1.91;92.81
2188;BME280;1100;52.014;8.540;2022-12-11T06:10:44;99619.47;;;-1.91;92.73
2188;BME280;1100;52.014;8.540;2022-12-11T06:13:11;99615.22;;;-1.88;92.69
2188;BME280;1100;52.014;8.540;2022-12-11T06:15:36;99617.94;;;-1.88;92.73
2188;BME280;1100;52.014;8.540;2022-12-11T06:18:01;99619.88;;;-1.89;92.44
2188;BME280;1100;52.014;8.540;2022-12-11T06:20:30;99617.16;;;-1.89;92.65
2188;BME280;1100;52.014;8.540;2022-12-11T06:22:55;99613.28;;;-1.88;92.71
2188;BME280;1100;52.014;8.540;2022-12-11T06:25:20;99611.72;;;-1.89;92.76
2188;BME280;1100;52.014;8.540;2022-12-11T06:27:46;99607.75;;;-1.91;92.13
2188;BME280;1100;52.014;8.540;2022-12-11T06:30:11;99605.47;;;-1.89;92.84
2188;BME280;1100;52.014;8.540;2022-12-11T06:32:37;99612.13;;;-1.86;92.84
2188;BME280;1100;52.014;8.540;2022-12-11T06:35:02;99612.84;;;-1.90;92.88
2188;BME280;1100;52.014;8.540;2022-12-11T06:37:27;99609.34;;;-1.90;92.78
2188;BME280;1100;52.014;8.540;2022-12-11T06:39:53;99600.38;;;-1.91;92.79
2188;BME280;1100;52.014;8.540;2022-12-11T06:42:18;99603.47;;;-1.92;92.60
2188;BME280;1100;52.014;8.540;2022-12-11T06:44:43;99607.75;;;-1.91;92.80
2188;BME280;1100;52.014;8.540;2022-12-11T06:47:08;99612.09;;;-1.90;92.98
2188;BME280;1100;52.014;8.540;2022-12-11T06:49:34;99610.13;;;-1.90;92.68
2188;BME280;1100;52.014;8.540;2022-12-11T06:51:59;99613.28;;;-1.88;92.91
2188;BME280;1100;52.014;8.540;2022-12-11T06:54:25;99609.00;;;-1.89;92.83
2188;BME280;1100;52.014;8.540;2022-12-11T06:56:51;99605.47;;;-1.89;92.73
2188;BME280;1100;52.014;8.540;2022-12-11T06:59:17;99612.13;;;-1.86;92.77
2188;BME280;1100;52.014;8.540;2022-12-11T07:01:43;99612.13;;;-1.86;92.68
2188;BME280;1100;52.014;8.540;2022-12-11T07:04:09;99608.66;;;-1.83;92.83
2188;BME280;1100;52.014;8.540;2022-12-11T07:06:34;99607.09;;;-1.84;92.58
2188;BME280;1100;52.014;8.540;2022-12-11T07:09:03;99614.84;;;-1.86;92.88
2188;BME280;1100;52.014;8.540;2022-12-11T07:11:29;99616.00;;;-1.88;92.84
2188;BME280;1100;52.014;8.540;2022-12-11T07:13:57;99610.97;;;-1.85;92.83
2188;BME280;1100;52.014;8.540;2022-12-11T07:16:24;99613.72;;;-1.85;92.71
2188;BME280;1100;52.014;8.540;2022-12-11T07:18:50;99614.06;;;-1.87;92.61
2188;BME280;1100;52.014;8.540;2022-12-11T07:21:16;99613.28;;;-1.88;92.84
2188;BME280;1100;52.014;8.540;2022-12-11T07:23:42;99609.00;;;-1.89;92.53
2188;BME280;1100;52.014;8.540;2022-12-11T07:26:13;99617.91;;;-1.92;92.42
2188;BME280;1100;52.014;8.540;2022-12-11T07:28:39;99617.03;;;-1.96;92.33
2188;BME280;1100;52.014;8.540;2022-12-11T07:31:20;99614.28;;;-1.99;92.50
2188;BME280;1100;52.014;8.540;2022-12-11T07:33:45;99618.56;;;-1.98;92.60
2188;BME280;1100;52.014;8.540;2022-12-11T07:36:12;99621.66;;;-2.00;92.92
2188;BME280;1100;52.014;8.540;2022-12-11T07:38:38;99618.56;;;-1.98;92.90
2188;BME280;1100;52.014;8.540;2022-12-11T07:41:06;99621.75;;;-1.93;92.73
2188;BME280;1100;52.014;8.540;2022-12-11T07:43:33;99622.13;;;-1.94;92.56
2188;BME280;1100;52.014;8.540;2022-12-11T07:46:10;99625.22;;;-1.96;92.55
2188;BME280;1100;52.014;8.540;2022-12-11T07:48:37;99633.75;;;-1.97;92.60
2188;BME280;1100;52.014;8.540;2022-12-11T07:53:40;99634.09;;;-1.99;92.53
2188;BME280;1100;52.014;8.540;2022-12-11T07:56:06;99636.47;;;-1.97;92.71
2188;BME280;1100;52.014;8.540;2022-12-11T07:58:31;99638.81;;;-1.96;92.46
2188;BME280;1100;52.014;8.540;2022-12-11T08:00:56;99632.63;;;-1.96;92.20
2188;BME280;1100;52.014;8.540;2022-12-11T08:03:22;99633.38;;;-1.96;92.55
2188;BME280;1100;52.014;8.540;2022-12-11T08:05:49;99635.69;;;-1.98;92.44
2188;BME280;1100;52.014;8.540;2022-12-11T08:08:15;99627.53;;;-1.98;92.67
2188;BME280;1100;52.014;8.540;2022-12-11T08:10:41;99629.38;;;-2.02;92.68
2188;BME280;1100;52.014;8.540;2022-12-11T08:13:07;99627.41;;;-2.05;92.65
2188;BME280;1100;52.014;8.540;2022-12-11T08:15:32;99626.63;;;-2.06;92.33
2188;BME280;1100;52.014;8.540;2022-12-11T08:17:58;99627.81;;;-2.03;92.56
2188;BME280;1100;52.014;8.540;2022-12-11T08:20:23;99630.19;;;-2.02;92.74
2188;BME280;1100;52.014;8.540;2022-12-11T08:22:49;99631.38;;;-1.99;92.76
2188;BME280;1100;52.014;8.540;2022-12-11T08:25:14;99628.72;;;-1.95;92.79
2188;BME280;1100;52.014;8.540;2022-12-11T08:27:39;99631.53;;;-1.92;92.79
2188;BME280;1100;52.014;8.540;2022-12-11T08:30:05;99635.38;;;-1.93;92.69
2188;BME280;1100;52.014;8.540;2022-12-11T08:32:31;99629.56;;;-1.91;92.63
2188;BME280;1100;52.014;8.540;2022-12-11T08:34:56;99633.44;;;-1.92;92.52
2188;BME280;1100;52.014;8.540;2022-12-11T08:37:21;99633.38;;;-1.96;92.39
2188;BME280;1100;52.014;8.540;2022-12-11T08:39:47;99633.38;;;-1.96;92.55
2188;BME280;1100;52.014;8.540;2022-12-11T08:42:12;99635.69;;;-1.98;92.57
2188;BME280;1100;52.014;8.540;2022-12-11T08:44:37;99633.75;;;-1.97;92.74
2188;BME280;1100;52.014;8.540;2022-12-11T08:47:02;99638.34;;;-2.02;92.43
2188;BME280;1100;52.014;8.540;2022-12-11T08:49:31;99636.78;;;-2.03;92.43
2188;BME280;1100;52.014;8.540;2022-12-11T08:51:56;99638.78;;;-1.99;92.78
2188;BME280;1100;52.014;8.540;2022-12-11T08:54:21;99638.78;;;-1.99;92.33
2188;BME280;1100;52.014;8.540;2022-12-11T08:56:46;99644.59;;;-2.01;92.46
2188;BME280;1100;52.014;8.540;2022-12-11T08:59:12;99639.44;;;-2.06;92.36
2188;BME280;1100;52.014;8.540;2022-12-11T09:01:37;99634.78;;;-2.06;92.54
2188;BME280;1100;52.014;8.540;2022-12-11T09:04:02;99641.81;;;-2.05;92.65
2188;BME280;1100;52.014;8.540;2022-12-11T09:06:29;99636.47;;;-1.97;92.70
2188;BME280;1100;52.014;8.540;2022-12-11T09:08:58;99648.59;;;-1.95;92.47
2188;BME280;1100;52.014;8.540;2022-12-11T09:11:27;99639.56;;;-1.99;92.47
2188;BME280;1100;52.014;8.540;2022-12-11T09:13:53;99637.94;;;-2.04;92.17
2188;BME280;1100;52.014;8.540;2022-12-11T09:16:21;99645.69;;;-2.06;92.39
2188;BME280;1100;52.014;8.540;2022-12-11T09:18:48;99639.44;;;-2.06;92.53
2188;BME280;1100;52.014;8.540;2022-12-11T09:21:17;99639.03;;;-2.08;92.68
2188;BME280;1100;52.014;8.540;2022-12-11T09:23:42;99642.97;;;-2.06;92.46
2188;BME280;1100;52.014;8.540;2022-12-11T09:26:11;99636.34;;;-2.05;92.40
2188;BME280;1100;52.014;8.540;2022-12-11T09:28:37;99639.81;;;-2.08;92.03
2188;BME280;1100;52.014;8.540;2022-12-11T09:31:15;99634.66;;;-2.13;92.13
2188;BME280;1100;52.014;8.540;2022-12-11T09:33:41;99634.63;;;-2.17;92.38
2188;BME280;1100;52.014;8.540;2022-12-11T09:36:07;99634.63;;;-2.17;92.69
2188;BME280;1100;52.014;8.540;2022-12-11T09:38:33;99635.38;;;-2.16;92.55
2188;BME280;1100;52.014;8.540;2022-12-11T09:41:00;99634.63;;;-2.17;92.67
2188;BME280;1100;52.014;8.540;2022-12-11T09:45:59;99634.97;;;-2.18;92.46
2188;BME280;1100;52.014;8.540;2022-12-11T09:48:27;99630.31;;;-2.18;92.50
2188;BME280;1100;52.014;8.540;2022-12-11T09:50:54;99624.50;;;-2.16;92.72
2188;BME280;1100;52.014;8.540;2022-12-11T09:53:28;99619.47;;;-2.14;92.73
2188;BME280;1100;52.014;8.540;2022-12-11T10:01:34;99616.69;;;-2.18;92.55
2188;BME280;1100;52.014;8.540;2022-12-11T10:12:36;99625.28;;;-2.16;92.69
2188;BME280;1100;52.014;8.540;2022-12-11T10:17:39;99615.97;;;-2.15;92.38
2188;BME280;1100;52.014;8.540;2022-12-11T10:22:34;99614.41;;;-2.16;92.50
2188;BME280;1100;52.014;8.540;2022-12-11T10:25:05;99615.22;;;-2.11;92.50
2188;BME280;1100;52.014;8.540;2022-12-11T10:27:33;99609.41;;;-2.10;92.76
2188;BME280;1100;52.014;8.540;2022-12-11T10:32:50;99605.13;;;-2.11;92.62
2188;BME280;1100;52.014;8.540;2022-12-11T10:35:38;99609.78;;;-2.11;92.52
2188;BME280;1100;52.014;8.540;2022-12-11T10:38:16;99602.84;;;-2.09;92.59
2188;BME280;1100;52.014;8.540;2022-12-11T10:40:50;99600.47;;;-2.10;92.32
2188;BME280;1100;52.014;8.540;2022-12-11T10:43:16;99604.28;;;-2.15;92.29
2188;BME280;1100;52.014;8.540;2022-12-11T10:45:54;99597.31;;;-2.13;92.34
2188;BME280;1100;52.014;8.540;2022-12-11T10:48:19;99605.94;;;-2.10;92.29
2188;BME280;1100;52.014;8.540;2022-12-11T10:50:55;99601.56;;;-2.15;92.12
2188;BME280;1100;52.014;8.540;2022-12-11T10:53:22;99604.22;;;-2.19;92.12
2188;BME280;1100;52.014;8.540;2022-12-11T10:55:48;99609.69;;;-2.19;92.20
2188;BME280;1100;52.014;8.540;2022-12-11T10:58:22;99606.53;;;-2.21;92.16
2188;BME280;1100;52.014;8.540;2022-12-11T11:03:29;99605.22;;;-2.31;91.98
2188;BME280;1100;52.014;8.540;2022-12-11T11:06:21;99605.63;;;-2.29;92.33
2188;BME280;1100;52.014;8.540;2022-12-11T11:08:49;99607.97;;;-2.27;92.38
2188;BME280;1100;52.014;8.540;2022-12-11T11:11:33;99610.34;;;-2.26;92.52
2188;BME280;1100;52.014;8.540;2022-12-11T11:14:19;99608.13;;;-2.20;92.53
2188;BME280;1100;52.014;8.540;2022-12-11T11:16:47;99606.53;;;-2.21;92.27
2188;BME280;1100;52.014;8.540;2022-12-11T11:19:22;99611.66;;;-2.16;92.64
2188;BME280;1100;52.014;8.540;2022-12-11T11:21:51;99607.03;;;-2.15;92.55
2188;BME280;1100;52.014;8.540;2022-12-11T11:24:24;99591.03;;;-2.17;92.60
2188;BME280;1100;52.014;8.540;2022-12-11T11:26:50;99594.25;;;-2.11;92.59
2188;BME280;1100;52.014;8.540;2022-12-11T11:29:26;99590.41;;;-2.06;92.61
2188;BME280;1100;52.014;8.540;2022-12-11T11:31:53;99583.88;;;-2.02;92.71
2188;BME280;1100;52.014;8.540;2022-12-11T11:34:19;99581.22;;;-1.98;92.56
2188;BME280;1100;52.014;8.540;2022-12-11T11:36:55;99578.06;;;-2.00;92.70
2188;BME280;1100;52.014;8.540;2022-12-11T11:39:35;99584.31;;;-1.99;92.50
2188;BME280;1100;52.014;8.540;2022-12-11T11:42:12;99578.78;;;-2.03;92.21
2188;BME280;1100;52.014;8.540;2022-12-11T11:44:47;99581.16;;;-2.02;92.45
2188;BME280;1100;52.014;8.540;2022-12-11T11:47:26;99585.03;;;-2.03;92.11
2188;BME280;1100;52.014;8.540;2022-12-11T11:52:33;99574.53;;;-2.01;92.26
2188;BME280;1100;52.014;8.540;2022-12-11T11:55:13;99577.34;;;-1.97;92.59
2188;BME280;1100;52.014;8.540;2022-12-11T11:57:48;99573.06;;;-1.94;92.63
2188;BME280;1100;52.014;8.540;2022-12-11T12:00:19;99574.72;;;-1.90;92.59
2188;BME280;1100;52.014;8.540;2022-12-11T12:02:46;99570.00;;;-1.93;92.59
2188;BME280;1100;52.014;8.540;2022-12-11T12:05:14;99577.44;;;-1.90;92.66
2188;BME280;1100;52.014;8.540;2022-12-11T12:07:44;99580.59;;;-1.88;92.57
2188;BME280;1100;52.014;8.540;2022-12-11T12:10:31;99580.66;;;-1.84;92.75
2188;BME280;1100;52.014;8.540;2022-12-11T12:16:00;99571.97;;;-1.90;92.10
2188;BME280;1100;52.014;8.540;2022-12-11T12:18:44;99573.13;;;-1.91;92.38
2188;BME280;1100;52.014;8.540;2022-12-11T12:21:28;99572.41;;;-1.88;92.51
2188;BME280;1100;52.014;8.540;2022-12-11T12:26:30;99559.63;;;-1.83;92.71
2188;BME280;1100;52.014;8.540;2022-12-11T12:29:25;99569.78;;;-1.80;92.63
2188;BME280;1100;52.014;8.540;2022-12-11T12:31:54;99562.03;;;-1.78;92.59
2188;BME280;1100;52.014;8.540;2022-12-11T12:45:46;99556.16;;;-1.80;92.68
2188;BME280;1100;52.014;8.540;2022-12-11T12:48:08;99558.16;;;-1.77;92.56
2188;BME280;1100;52.014;8.540;2022-12-11T12:50:41;99551.19;;;-1.74;92.64
2188;BME280;1100;52.014;8.540;2022-12-11T12:53:15;99552.38;;;-1.72;92.50
2188;BME280;1100;52.014;8.540;2022-12-11T12:55:42;99548.88;;;-1.72;92.85
2188;BME280;1100;52.014;8.540;2022-12-11T13:00:48;99547.34;;;-1.70;92.60
2188;BME280;1100;52.014;8.540;2022-12-11T13:03:16;99558.66;;;-1.68;92.64
2188;BME280;1100;52.014;8.540;2022-12-11T13:05:55;99548.13;;;-1.69;92.45
2188;BME280;1100;52.014;8.540;2022-12-11T13:08:25;99550.47;;;-1.68;92.45
2188;BME280;1100;52.014;8.540;2022-12-11T13:11:01;99548.97;;;-1.65;92.71
2188;BME280;1100;52.014;8.540;2022-12-11T13:13:35;99538.84;;;-1.65;92.64
2188;BME280;1100;52.014;8.540;2022-12-11T13:16:23;99543.09;;;-1.67;92.44
2188;BME280;1100;52.014;8.540;2022-12-11T13:18:49;99549.72;;;-1.68;92.72
2188;BME280;1100;52.014;8.540;2022-12-11T13:21:35;99546.94;;;-1.72;92.71
2188;BME280;1100;52.014;8.540;2022-12-11T13:24:16;99545.78;;;-1.71;92.66
2188;BME280;1100;52.014;8.540;2022-12-11T13:26:42;99542.28;;;-1.71;92.79
2188;BME280;1100;52.014;8.540;2022-12-11T13:29:46;99545.78;;;-1.71;92.76
2188;BME280;1100;52.014;8.540;2022-12-11T13:34:54;99546.56;;;-1.70;92.78
2188;BME280;1100;52.014;8.540;2022-12-11T13:37:37;99541.06;;;-1.74;92.80
2188;BME280;1100;52.014;8.540;2022-12-11T13:40:13;99545.31;;;-1.77;92.52
2188;BME280;1100;52.014;8.540;2022-12-11T13:42:48;99547.66;;;-1.75;92.65
2188;BME280;1100;52.014;8.540;2022-12-11T13:45:31;99546.94;;;-1.72;92.73
2188;BME280;1100;52.014;8.540;2022-12-11T13:48:00;99538.75;;;-1.72;92.60
2188;BME280;1100;52.014;8.540;2022-12-11T13:50:29;99550.41;;;-1.75;92.48
2188;BME280;1100;52.014;8.540;2022-12-11T13:52:58;99546.41;;;-1.81;92.56
2188;BME280;1100;52.014;8.540;2022-12-11T13:55:28;99550.31;;;-1.82;92.48
2188;BME280;1100;52.014;8.540;2022-12-11T13:57:55;99556.50;;;-1.85;92.52
2188;BME280;1100;52.014;8.540;2022-12-11T14:00:28;99553.78;;;-1.82;92.60
2188;BME280;1100;52.014;8.540;2022-12-11T14:02:55;99550.69;;;-1.84;92.39
2188;BME280;1100;52.014;8.540;2022-12-11T14:05:22;99552.22;;;-1.83;92.58
2188;BME280;1100;52.014;8.540;2022-12-11T14:07:51;99548.72;;;-1.83;92.47
2188;BME280;1100;52.014;8.540;2022-12-11T14:10:21;99550.31;;;-1.82;92.56
2188;BME280;1100;52.014;8.540;2022-12-11T14:12:55;99542.53;;;-1.80;92.62
2188;BME280;1100;52.014;8.540;2022-12-11T14:15:21;99552.69;;;-1.77;92.72
2188;BME280;1100;52.014;8.540;2022-12-11T14:17:47;99548.78;;;-1.80;92.58
2188;BME280;1100;52.014;8.540;2022-12-11T14:20:19;99557.25;;;-1.85;92.58
2188;BME280;1100;52.014;8.540;2022-12-11T14:22:45;99564.22;;;-1.88;92.67
2188;BME280;1100;52.014;8.540;2022-12-11T14:25:23;99560.31;;;-1.90;92.36
2188;BME280;1100;52.014;8.540;2022-12-11T14:27:53;99557.53;;;-1.94;92.48
2188;BME280;1100;52.014;8.540;2022-12-11T14:30:25;99557.16;;;-1.92;92.59
2188;BME280;1100;52.014;8.540;2022-12-11T14:32:53;99566.91;;;-1.91;92.58
2188;BME280;1100;52.014;8.540;2022-12-11T14:35:26;99566.53;;;-1.90;92.67
2188;BME280;1100;52.014;8.540;2022-12-11T14:37:53;99570.84;;;-1.89;92.25
2188;BME280;1100;52.014;8.540;2022-12-11T14:40:22;99555.69;;;-1.86;92.79
2188;BME280;1100;52.014;8.540;2022-12-11T14:42:55;99556.88;;;-1.83;92.65
2188;BME280;1100;52.014;8.540;2022-12-11T14:45:32;99564.31;;;-1.80;92.70
2188;BME280;1100;52.014;8.540;2022-12-11T14:47:59;99566.69;;;-1.79;92.69